Time;durP1;ratioP1;P1;durP2;ratioP2;P2;SDS_P1;SDS_P2;PMS_P1;PMS_P2;Temp;Humidity;BMP_temperature;BMP_pressure;BME280_temperature;BME280_humidity;BME280_pressure;Samples;Min_cycle;Max_cycle;Signal;HPM_P1;HPM_P2
2020/12/18 00:00:30;;;;;;;16.07;14.07;;;8.70;99.90;;;;;;5053878;28;20452;-69
2020/12/18 00:02:57;;;;;;;15.07;13.63;;;8.60;99.90;;;;;;5052427;28;20448;-68
2020/12/18 00:05:23;;;;;;;14.37;12.97;;;8.60;99.90;;;;;;5051571;28;20502;-69
2020/12/18 00:07:50;;;;;;;16.17;14.57;;;8.60;99.90;;;;;;5052543;28;20464;-69
2020/12/18 00:10:16;;;;;;;17.27;15.57;;;8.60;99.90;;;;;;5052797;28;20463;-69
2020/12/18 00:12:43;;;;;;;16.60;14.07;;;8.50;99.90;;;;;;5034499;28;20495;-69
2020/12/18 00:15:09;;;;;;;15.70;14.20;;;8.50;99.90;;;;;;5048078;28;21022;-69
2020/12/18 00:17:35;;;;;;;15.70;14.10;;;8.40;99.90;;;;;;5052837;28;20513;-69
2020/12/18 00:20:05;;;;;;;16.73;15.03;;;8.40;99.90;;;;;;5055024;28;20546;-69
2020/12/18 00:22:31;;;;;;;15.90;14.37;;;8.40;99.90;;;;;;5066135;28;20436;-69
2020/12/18 00:24:59;;;;;;;16.47;14.70;;;8.30;99.90;;;;;;5065313;28;20479;-69
2020/12/18 00:27:25;;;;;;;17.33;14.77;;;8.30;99.90;;;;;;5064619;28;20444;-69
2020/12/18 00:29:51;;;;;;;16.43;14.70;;;8.30;99.90;;;;;;5053580;28;20496;-69
2020/12/18 00:32:17;;;;;;;15.77;14.30;;;8.20;99.90;;;;;;5052289;28;20491;-69
2020/12/18 00:34:43;;;;;;;16.63;14.27;;;8.10;99.90;;;;;;5051928;28;20488;-69
2020/12/18 00:37:10;;;;;;;16.57;14.97;;;8.20;99.90;;;;;;5051754;28;20452;-69
2020/12/18 00:39:37;;;;;;;17.83;14.87;;;8.10;99.90;;;;;;5045790;28;20514;-69
2020/12/18 00:42:04;;;;;;;18.83;16.83;;;8.10;99.90;;;;;;5050408;28;20440;-69
2020/12/18 00:44:30;;;;;;;18.70;16.70;;;8.10;99.90;;;;;;5050902;28;20555;-69
2020/12/18 00:46:56;;;;;;;21.47;16.53;;;8.10;99.90;;;;;;5050287;28;20451;-69
2020/12/18 00:49:23;;;;;;;17.40;15.70;;;8.00;99.90;;;;;;5052406;28;20977;-69
2020/12/18 00:51:52;;;;;;;16.10;14.70;;;8.00;99.90;;;;;;5052231;28;20531;-69
2020/12/18 00:54:18;;;;;;;19.33;15.17;;;8.00;99.90;;;;;;5051481;28;20548;-69
2020/12/18 00:56:44;;;;;;;15.93;14.33;;;8.00;99.90;;;;;;5052419;28;20444;-68
2020/12/18 00:59:12;;;;;;;16.23;14.73;;;7.90;99.90;;;;;;5051676;28;20463;-68
2020/12/18 01:01:38;;;;;;;16.60;14.80;;;7.90;99.90;;;;;;5051755;28;20464;-69
2020/12/18 01:04:05;;;;;;;18.67;15.70;;;7.90;99.90;;;;;;5051152;28;20468;-69
2020/12/18 01:06:31;;;;;;;16.00;14.33;;;7.90;99.90;;;;;;5044977;28;20513;-69
2020/12/18 01:08:58;;;;;;;15.60;13.43;;;7.90;99.90;;;;;;5051290;28;20463;-69
2020/12/18 01:11:24;;;;;;;18.67;14.20;;;7.90;99.90;;;;;;5051454;28;20543;-69
2020/12/18 01:13:50;;;;;;;16.20;14.50;;;8.00;99.90;;;;;;5050892;28;20494;-69
2020/12/18 01:16:17;;;;;;;16.17;14.50;;;8.10;99.90;;;;;;5051875;28;20502;-70
2020/12/18 01:18:44;;;;;;;16.40;13.67;;;8.10;99.90;;;;;;5051923;28;20649;-69
2020/12/18 01:21:10;;;;;;;16.17;14.60;;;8.10;99.90;;;;;;5051626;28;20447;-70
2020/12/18 01:23:36;;;;;;;15.63;14.10;;;8.10;99.90;;;;;;5051133;28;20545;-70
2020/12/18 01:26:03;;;;;;;14.17;12.63;;;8.20;99.90;;;;;;5051747;28;20464;-70
2020/12/18 01:28:29;;;;;;;14.57;13.07;;;8.20;99.90;;;;;;5050937;28;20478;-70
2020/12/18 01:30:56;;;;;;;16.60;13.60;;;8.20;99.90;;;;;;5052212;28;20505;-69
2020/12/18 01:33:23;;;;;;;15.43;13.73;;;8.20;99.90;;;;;;5051344;28;20486;-69
2020/12/18 01:35:51;;;;;;;13.20;12.00;;;8.30;99.90;;;;;;5049153;28;20517;-69
2020/12/18 01:38:17;;;;;;;14.87;13.37;;;8.30;99.90;;;;;;5052177;28;20462;-69
2020/12/18 01:40:43;;;;;;;18.63;13.57;;;8.30;99.90;;;;;;5051249;28;20677;-70
2020/12/18 01:43:12;;;;;;;17.20;13.30;;;8.30;99.90;;;;;;5051283;28;20460;-70
2020/12/18 01:45:38;;;;;;;13.40;12.20;;;8.30;99.90;;;;;;5051716;28;20459;-69
2020/12/18 01:48:04;;;;;;;14.87;13.33;;;8.30;99.90;;;;;;5055807;28;20534;-69
2020/12/18 01:50:32;;;;;;;13.70;12.43;;;8.30;99.90;;;;;;5054877;28;20546;-69
2020/12/18 01:52:59;;;;;;;13.60;12.17;;;8.40;99.90;;;;;;5055697;28;20479;-69
2020/12/18 01:55:27;;;;;;;18.47;13.40;;;8.40;99.90;;;;;;5053729;28;20491;-69
2020/12/18 01:57:55;;;;;;;13.93;12.60;;;8.40;99.90;;;;;;5055044;28;20496;-70
2020/12/18 02:00:22;;;;;;;15.37;13.53;;;8.40;99.90;;;;;;5054244;28;20830;-69
2020/12/18 02:02:48;;;;;;;14.23;12.90;;;8.40;99.90;;;;;;5055715;28;20440;-69
2020/12/18 02:05:15;;;;;;;16.40;13.10;;;8.40;99.90;;;;;;5054256;28;20487;-69
2020/12/18 02:07:49;;;;;;;14.63;13.13;;;8.40;99.90;;;;;;5055142;28;20996;-70
2020/12/18 02:10:15;;;;;;;13.93;12.53;;;8.40;99.90;;;;;;5054725;28;20473;-69
2020/12/18 02:12:41;;;;;;;14.30;13.00;;;8.40;99.90;;;;;;5054613;28;20479;-69
2020/12/18 02:15:08;;;;;;;14.53;12.67;;;8.40;99.90;;;;;;5054066;28;20483;-69
2020/12/18 02:17:34;;;;;;;14.43;12.80;;;8.40;99.90;;;;;;5051623;28;21029;-69
2020/12/18 02:20:01;;;;;;;14.43;12.97;;;8.40;99.90;;;;;;5054646;28;20458;-70
2020/12/18 02:22:29;;;;;;;14.60;13.37;;;8.40;99.90;;;;;;5048315;28;20490;-70
2020/12/18 02:25:01;;;;;;;14.80;13.40;;;8.30;99.90;;;;;;5052254;28;20475;-69
2020/12/18 02:27:29;;;;;;;15.63;14.13;;;8.30;99.90;;;;;;5055631;28;20810;-69
2020/12/18 02:29:55;;;;;;;14.00;12.70;;;8.30;99.90;;;;;;5054279;28;20463;-69
2020/12/18 02:32:22;;;;;;;15.77;14.10;;;8.30;99.90;;;;;;5052995;28;20871;-69
2020/12/18 02:34:48;;;;;;;15.47;13.90;;;8.30;99.90;;;;;;5055124;28;20463;-69
2020/12/18 02:37:15;;;;;;;14.30;12.80;;;8.20;99.90;;;;;;5054393;28;20458;-69
2020/12/18 02:39:41;;;;;;;16.03;14.43;;;8.30;99.90;;;;;;5051146;28;20463;-69
2020/12/18 02:42:07;;;;;;;15.87;14.37;;;8.20;99.90;;;;;;5054234;28;20444;-69
2020/12/18 02:44:35;;;;;;;16.13;14.00;;;8.20;99.90;;;;;;5052539;28;20487;-69
2020/12/18 02:47:01;;;;;;;16.00;14.40;;;8.20;99.90;;;;;;5054033;28;20447;-69
2020/12/18 02:49:27;;;;;;;15.60;14.20;;;8.20;99.90;;;;;;5053894;28;20467;-69
2020/12/18 02:51:54;;;;;;;17.07;14.90;;;8.20;99.90;;;;;;5054940;28;20469;-69
2020/12/18 02:54:20;;;;;;;16.30;14.90;;;8.20;99.90;;;;;;5053817;28;20502;-69
2020/12/18 02:56:46;;;;;;;16.23;14.50;;;8.20;99.90;;;;;;5053689;28;20466;-69
2020/12/18 02:59:12;;;;;;;17.73;13.97;;;8.20;99.90;;;;;;5053065;28;20475;-69
2020/12/18 03:01:40;;;;;;;16.47;14.70;;;8.30;99.90;;;;;;5054673;28;20444;-69
2020/12/18 03:04:06;;;;;;;16.80;15.37;;;8.20;99.90;;;;;;5052203;28;20475;-69
2020/12/18 03:06:32;;;;;;;17.17;15.57;;;8.20;99.90;;;;;;5054427;28;20880;-70
2020/12/18 03:08:59;;;;;;;15.37;14.07;;;8.20;99.90;;;;;;5053968;28;20467;-70
2020/12/18 03:11:25;;;;;;;16.60;14.80;;;8.20;99.90;;;;;;5053713;28;20476;-69
2020/12/18 03:13:51;;;;;;;18.00;16.03;;;8.30;99.90;;;;;;5052264;28;20495;-69
2020/12/18 03:16:17;;;;;;;19.83;15.40;;;8.30;99.90;;;;;;5054290;28;20458;-69
2020/12/18 03:18:44;;;;;;;21.47;16.00;;;8.30;99.90;;;;;;5053665;28;20459;-69
2020/12/18 03:21:11;;;;;;;17.50;15.70;;;8.30;99.90;;;;;;5054056;28;20455;-69
2020/12/18 03:23:37;;;;;;;17.57;15.90;;;8.30;99.90;;;;;;5053390;28;20480;-70
2020/12/18 03:26:04;;;;;;;19.83;15.80;;;8.30;99.90;;;;;;5053776;28;20823;-70
2020/12/18 03:28:30;;;;;;;17.87;15.97;;;8.30;99.90;;;;;;5054387;28;20869;-70
2020/12/18 03:30:56;;;;;;;19.60;16.13;;;8.30;99.90;;;;;;5053863;28;20475;-70
2020/12/18 03:33:23;;;;;;;18.87;16.87;;;8.40;99.90;;;;;;5054228;28;20479;-70
2020/12/18 03:35:50;;;;;;;17.80;14.90;;;8.40;99.90;;;;;;5053670;28;20509;-70
2020/12/18 03:38:16;;;;;;;19.13;17.00;;;8.30;99.90;;;;;;5048348;28;20475;-69
2020/12/18 03:40:43;;;;;;;17.70;16.03;;;8.30;99.90;;;;;;5053364;28;20486;-69
2020/12/18 03:43:09;;;;;;;17.97;16.27;;;8.40;99.90;;;;;;5054074;28;20448;-70
2020/12/18 03:45:36;;;;;;;18.13;16.43;;;8.30;99.90;;;;;;5053745;28;20487;-69
2020/12/18 03:48:02;;;;;;;17.50;15.67;;;8.30;99.90;;;;;;5057047;28;20871;-69
2020/12/18 03:50:28;;;;;;;17.13;15.30;;;8.30;99.90;;;;;;5058210;28;20823;-69
2020/12/18 03:52:55;;;;;;;16.47;14.83;;;8.30;99.90;;;;;;5053772;28;20490;-69
2020/12/18 03:55:22;;;;;;;18.47;16.83;;;8.30;99.90;;;;;;5050095;28;20492;-70
2020/12/18 03:57:48;;;;;;;18.27;16.57;;;8.30;99.90;;;;;;5052879;28;20947;-69
2020/12/18 04:00:14;;;;;;;17.40;15.67;;;8.30;99.90;;;;;;5052994;28;20471;-70
2020/12/18 04:02:41;;;;;;;17.17;15.60;;;8.30;99.90;;;;;;5053483;28;20473;-70
2020/12/18 04:05:07;;;;;;;18.77;17.07;;;8.30;99.90;;;;;;5052527;28;20487;-69
2020/12/18 04:07:33;;;;;;;18.97;17.47;;;8.10;99.90;;;;;;5052345;28;20459;-69
2020/12/18 04:10:00;;;;;;;19.37;17.70;;;8.10;99.90;;;;;;5052585;28;20474;-69
2020/12/18 04:12:26;;;;;;;18.60;17.00;;;8.00;99.90;;;;;;5046832;28;20485;-69
2020/12/18 04:14:53;;;;;;;18.67;16.67;;;8.10;99.90;;;;;;5032751;28;20487;-69
2020/12/18 04:17:19;;;;;;;18.70;16.90;;;8.00;99.90;;;;;;5051391;28;20471;-69
2020/12/18 04:19:45;;;;;;;19.00;17.50;;;8.00;99.90;;;;;;5052601;28;20468;-69
2020/12/18 04:22:12;;;;;;;19.70;17.80;;;8.00;99.90;;;;;;5051784;28;20485;-69
2020/12/18 04:24:38;;;;;;;19.90;18.00;;;8.00;99.90;;;;;;5051032;28;20536;-69
2020/12/18 04:27:05;;;;;;;19.07;17.27;;;8.00;99.90;;;;;;5053068;28;20444;-69
2020/12/18 04:29:32;;;;;;;18.63;17.13;;;8.00;99.90;;;;;;5052529;28;20459;-69
2020/12/18 04:31:59;;;;;;;19.23;17.40;;;8.00;99.90;;;;;;5052611;28;20464;-69
2020/12/18 04:34:25;;;;;;;19.03;17.30;;;8.00;99.90;;;;;;5051138;28;20522;-69
2020/12/18 04:36:51;;;;;;;18.23;16.67;;;8.00;99.90;;;;;;5053278;28;20539;-68
2020/12/18 04:39:18;;;;;;;17.37;15.70;;;8.00;99.90;;;;;;5049833;28;20463;-69
2020/12/18 04:41:44;;;;;;;19.30;17.47;;;8.00;99.90;;;;;;5052000;28;20466;-68
2020/12/18 04:44:11;;;;;;;18.50;16.67;;;8.10;99.90;;;;;;5052677;28;20638;-69
2020/12/18 04:46:39;;;;;;;19.97;17.97;;;8.00;99.90;;;;;;5053640;28;20448;-69
2020/12/18 04:49:05;;;;;;;19.67;17.57;;;8.10;99.90;;;;;;5052798;28;20460;-68
2020/12/18 04:51:32;;;;;;;19.10;17.60;;;8.10;99.90;;;;;;5061319;28;20515;-68
2020/12/18 04:54:04;;;;;;;20.50;18.57;;;8.00;99.90;;;;;;5068506;28;20604;-69
2020/12/18 04:56:37;;;;;;;20.83;19.00;;;8.00;99.90;;;;;;5070728;28;20459;-69
2020/12/18 04:59:05;;;;;;;20.03;18.17;;;7.90;99.90;;;;;;5053566;28;20513;-69
2020/12/18 05:01:32;;;;;;;21.20;19.07;;;7.80;99.90;;;;;;5053292;28;20458;-69
2020/12/18 05:04:01;;;;;;;21.53;19.73;;;7.80;99.90;;;;;;5050927;28;20483;-68
2020/12/18 05:06:27;;;;;;;23.70;20.17;;;7.70;99.90;;;;;;5052819;28;20448;-69
2020/12/18 05:08:53;;;;;;;21.77;19.90;;;7.70;99.90;;;;;;5050895;28;20468;-69
2020/12/18 05:11:23;;;;;;;22.17;20.20;;;7.70;99.90;;;;;;5051445;28;20471;-69
2020/12/18 05:13:51;;;;;;;22.10;20.07;;;7.60;99.90;;;;;;5037556;28;20540;-69
2020/12/18 05:16:19;;;;;;;22.90;20.67;;;7.60;99.90;;;;;;5052188;28;20448;-69
2020/12/18 05:18:46;;;;;;;22.27;20.13;;;7.60;99.90;;;;;;5049999;28;20520;-69
2020/12/18 05:21:12;;;;;;;20.90;19.00;;;7.60;99.90;;;;;;5052273;28;20452;-69
2020/12/18 05:23:40;;;;;;;23.20;20.83;;;7.60;99.90;;;;;;5051139;28;20483;-69
2020/12/18 05:26:08;;;;;;;23.23;20.80;;;7.50;99.90;;;;;;5051792;28;20504;-69
2020/12/18 05:28:39;;;;;;;22.70;20.60;;;7.50;99.90;;;;;;5051388;28;20458;-69
2020/12/18 05:31:10;;;;;;;21.43;19.53;;;7.50;99.90;;;;;;5051757;28;20502;-69
2020/12/18 05:33:36;;;;;;;22.67;20.67;;;7.50;99.90;;;;;;5049520;28;20499;-69
2020/12/18 05:36:03;;;;;;;24.63;22.03;;;7.50;99.90;;;;;;5051575;28;20450;-70
2020/12/18 05:38:30;;;;;;;23.47;20.80;;;7.50;99.90;;;;;;5049600;28;20447;-68
2020/12/18 05:40:59;;;;;;;24.60;21.97;;;7.50;99.90;;;;;;5048942;28;20464;-71
2020/12/18 05:43:25;;;;;;;23.63;21.23;;;7.50;99.90;;;;;;5051118;28;20456;-71
2020/12/18 05:45:51;;;;;;;23.07;20.87;;;7.50;99.90;;;;;;5051266;28;20450;-71
2020/12/18 05:48:18;;;;;;;23.10;20.93;;;7.40;99.90;;;;;;5049839;28;20469;-72
2020/12/18 05:50:44;;;;;;;21.50;19.60;;;7.40;99.90;;;;;;5049671;28;20463;-71
2020/12/18 05:53:12;;;;;;;25.50;22.90;;;7.30;99.90;;;;;;5051524;28;20480;-71
2020/12/18 05:55:39;;;;;;;25.03;22.67;;;7.30;99.90;;;;;;5050255;28;20469;-71
2020/12/18 05:58:06;;;;;;;24.83;22.47;;;7.30;99.90;;;;;;5051788;28;20477;-71
2020/12/18 06:00:37;;;;;;;25.37;22.67;;;7.20;99.90;;;;;;5050118;28;20467;-72
2020/12/18 06:03:09;;;;;;;26.20;23.50;;;7.10;99.90;;;;;;5049274;28;20837;-72
2020/12/18 06:05:37;;;;;;;27.13;24.73;;;7.10;99.90;;;;;;5050047;28;20986;-71
2020/12/18 06:08:07;;;;;;;25.80;23.13;;;7.10;99.90;;;;;;5049972;28;20452;-71
2020/12/18 06:10:35;;;;;;;25.63;23.10;;;7.00;99.90;;;;;;5050452;28;20459;-71
2020/12/18 06:13:03;;;;;;;25.83;23.23;;;7.00;99.90;;;;;;5050957;28;20492;-71
2020/12/18 06:15:32;;;;;;;25.73;22.90;;;7.00;99.90;;;;;;5049572;28;20496;-71
2020/12/18 06:18:02;;;;;;;25.17;22.77;;;6.90;99.90;;;;;;5049360;28;20525;-71
2020/12/18 06:20:34;;;;;;;26.40;23.83;;;6.80;99.90;;;;;;5051767;28;20856;-72
2020/12/18 06:23:01;;;;;;;27.07;24.47;;;6.80;99.90;;;;;;5048518;28;20982;-72
2020/12/18 06:25:28;;;;;;;25.10;22.80;;;6.80;99.90;;;;;;5051148;28;20468;-72
2020/12/18 06:27:57;;;;;;;25.53;23.17;;;6.70;99.90;;;;;;5051303;28;20471;-71
2020/12/18 06:30:23;;;;;;;27.30;24.40;;;6.80;99.90;;;;;;5051544;28;20513;-72
2020/12/18 06:32:50;;;;;;;25.80;23.20;;;6.70;99.90;;;;;;5054582;28;20487;-72
2020/12/18 06:35:28;;;;;;;29.80;27.00;;;6.80;99.90;;;;;;5053558;28;20574;-71
2020/12/18 06:37:54;;;;;;;28.40;24.90;;;6.70;99.90;;;;;;5054513;28;20451;-71
2020/12/18 06:40:28;;;;;;;27.73;24.93;;;6.70;99.90;;;;;;5053342;28;20460;-71
2020/12/18 06:42:56;;;;;;;28.70;26.03;;;6.70;99.90;;;;;;5053433;28;20444;-71
2020/12/18 06:45:23;;;;;;;28.23;25.63;;;6.70;99.90;;;;;;5052138;28;20574;-71
2020/12/18 06:47:49;;;;;;;27.77;24.77;;;6.70;99.90;;;;;;5054723;28;20444;-72
2020/12/18 06:50:16;;;;;;;26.70;24.10;;;6.70;99.90;;;;;;5053533;28;20463;-72
2020/12/18 06:52:53;;;;;;;27.90;25.27;;;6.70;99.90;;;;;;5054271;28;20586;-72
2020/12/18 06:55:41;;;;;;;27.53;24.73;;;6.70;99.90;;;;;;5054897;28;20467;-72
2020/12/18 06:58:12;;;;;;;28.90;26.00;;;6.60;99.90;;;;;;5051134;28;20529;-72
2020/12/18 07:00:44;;;;;;;29.47;26.57;;;6.60;99.90;;;;;;5053520;28;20468;-71
2020/12/18 07:03:11;;;;;;;8.73;6.27;;;6.70;99.90;;;;;;5054280;28;21023;-74
2020/12/18 07:05:38;;;;;;;9.83;6.63;;;9.40;99.90;;;;;;5054178;28;20828;-71
2020/12/18 07:08:06;;;;;;;10.07;6.90;;;13.30;99.90;;;;;;5054204;28;20459;-70
2020/12/18 07:10:37;;;;;;;10.40;6.73;;;14.90;99.90;;;;;;5056662;28;20471;-71
2020/12/18 07:13:03;;;;;;;8.93;6.10;;;16.30;99.90;;;;;;5055329;28;20815;-70
2020/12/18 07:15:51;;;;;;;10.93;6.93;;;17.00;99.90;;;;;;5053546;28;20498;-70
2020/12/18 07:18:22;;;;;;;8.77;7.10;;;17.50;99.90;;;;;;5036818;28;20452;-71
2020/12/18 07:20:50;;;;;;;8.10;5.70;;;18.10;99.90;;;;;;5054095;28;20447;-71
2020/12/18 07:23:17;;;;;;;7.60;6.80;;;18.70;99.90;;;;;;5044079;28;20463;-70
2020/12/18 07:25:44;;;;;;;5.50;4.60;;;19.20;99.90;;;;;;5053707;28;20478;-71
2020/12/18 07:28:10;;;;;;;5.90;5.30;;;19.40;99.90;;;;;;5053758;28;20470;-70
2020/12/18 07:30:41;;;;;;;6.23;5.53;;;19.80;99.90;;;;;;5053698;28;20474;-70
2020/12/18 07:33:09;;;;;;;6.30;4.37;;;20.10;99.90;;;;;;5052656;28;20564;-70
2020/12/18 07:35:37;;;;;;;6.10;4.83;;;20.30;99.90;;;;;;5053897;28;20847;-70
2020/12/18 07:38:11;;;;;;;7.03;5.13;;;20.50;99.90;;;;;;5053245;28;20471;-70
2020/12/18 07:40:38;;;;;;;5.60;4.33;;;20.60;99.90;;;;;;5053511;28;20455;-70
2020/12/18 07:43:08;;;;;;;4.90;4.27;;;20.80;99.90;;;;;;5053643;28;20440;-70
2020/12/18 07:45:37;;;;;;;5.17;3.73;;;20.90;99.90;;;;;;5053600;28;20533;-70
2020/12/18 07:48:10;;;;;;;10.40;5.10;;;20.90;99.90;;;;;;5054040;28;20502;-70
2020/12/18 07:50:37;;;;;;;5.20;4.40;;;20.90;99.90;;;;;;5053687;28;20473;-69
2020/12/18 07:53:07;;;;;;;5.17;4.00;;;21.00;99.90;;;;;;5053896;28;20495;-69
2020/12/18 07:55:33;;;;;;;15.80;14.50;;;21.00;99.90;;;;;;5053460;28;20828;-70
2020/12/18 07:58:00;;;;;;;19.77;17.97;;;11.90;99.90;;;;;;5054057;28;20464;-69
2020/12/18 08:00:26;;;;;;;19.03;17.07;;;8.80;99.90;;;;;;5055417;28;20550;-69
2020/12/18 08:02:53;;;;;;;19.17;17.20;;;8.10;99.90;;;;;;5053036;28;20440;-69
2020/12/18 08:05:21;;;;;;;17.70;16.10;;;8.00;99.90;;;;;;5056303;28;20468;-69
2020/12/18 08:07:49;;;;;;;17.80;16.13;;;7.80;99.90;;;;;;5055918;28;20448;-69
2020/12/18 08:10:17;;;;;;;16.70;15.00;;;8.00;99.90;;;;;;5052099;28;20931;-73
2020/12/18 08:12:48;;;;;;;17.13;14.93;;;8.10;99.90;;;;;;5049832;28;20492;-73
2020/12/18 08:15:15;;;;;;;15.67;14.13;;;8.20;99.90;;;;;;5051169;28;21006;-72
2020/12/18 08:17:42;;;;;;;14.00;12.53;;;8.40;99.90;;;;;;5045565;28;20448;-72
2020/12/18 08:20:13;;;;;;;15.93;14.27;;;8.50;99.90;;;;;;5052264;28;20840;-72
2020/12/18 08:22:43;;;;;;;14.03;12.63;;;8.60;99.90;;;;;;5052947;28;20597;-72
2020/12/18 08:25:11;;;;;;;15.47;13.23;;;8.90;99.90;;;;;;5053683;28;20476;-72
2020/12/18 08:27:45;;;;;;;12.53;11.33;;;9.10;99.90;;;;;;5052429;28;20452;-72
2020/12/18 08:30:13;;;;;;;12.00;11.00;;;9.20;99.90;;;;;;5052694;28;20510;-73
2020/12/18 08:32:45;;;;;;;11.73;10.60;;;9.70;99.90;;;;;;5052791;28;20463;-72
2020/12/18 08:35:19;;;;;;;11.07;10.03;;;9.30;99.90;;;;;;5051903;28;20971;-72
2020/12/18 08:37:48;;;;;;;10.93;9.93;;;9.80;99.90;;;;;;5052540;28;20450;-73
2020/12/18 08:40:19;;;;;;;10.57;9.47;;;9.80;99.90;;;;;;5052157;28;20547;-72
2020/12/18 08:42:58;;;;;;;10.87;9.30;;;10.30;99.90;;;;;;5051858;28;20480;-72
2020/12/18 08:45:24;;;;;;;9.93;8.43;;;10.90;99.90;;;;;;5051717;28;20475;-72
2020/12/18 08:47:51;;;;;;;10.00;9.00;;;10.90;99.90;;;;;;5052291;28;20452;-72
2020/12/18 08:50:18;;;;;;;9.73;8.60;;;10.50;99.90;;;;;;5052131;28;20448;-71
2020/12/18 08:52:47;;;;;;;8.90;8.00;;;10.80;99.90;;;;;;5052645;28;20472;-73
2020/12/18 08:55:13;;;;;;;9.23;8.43;;;10.50;99.90;;;;;;5050849;28;20482;-74
2020/12/18 08:57:40;;;;;;;8.37;7.70;;;10.50;99.90;;;;;;5051649;28;20447;-74
2020/12/18 09:00:12;;;;;;;8.80;7.90;;;11.10;99.90;;;;;;5052207;28;20443;-72
2020/12/18 09:02:40;;;;;;;10.73;8.30;;;11.20;99.90;;;;;;5052024;28;20508;-72
2020/12/18 09:05:12;;;;;;;7.80;7.17;;;11.30;99.90;;;;;;5051322;28;20471;-73
2020/12/18 09:07:40;;;;;;;8.27;7.40;;;10.90;99.90;;;;;;5052105;28;20935;-73
2020/12/18 09:10:07;;;;;;;8.33;7.53;;;11.50;99.90;;;;;;5051824;28;21160;-73
2020/12/18 09:12:42;;;;;;;8.10;7.40;;;10.90;99.90;;;;;;5051518;28;20444;-71
2020/12/18 09:15:19;;;;;;;7.40;5.77;;;12.50;99.90;;;;;;5051643;28;20485;-74
2020/12/18 09:17:45;;;;;;;6.10;5.50;;;12.70;99.90;;;;;;5051225;28;20509;-71
2020/12/18 09:20:23;;;;;;;6.17;5.63;;;13.40;99.90;;;;;;5053687;28;20439;-72
2020/12/18 09:22:57;;;;;;;7.57;6.23;;;13.40;99.90;;;;;;5064365;28;20447;-74
2020/12/18 09:25:25;;;;;;;11.63;10.53;;;13.30;99.90;;;;;;5058279;28;20464;-72
2020/12/18 09:27:56;;;;;;;8.33;7.03;;;13.50;99.90;;;;;;5052293;28;20456;-73
2020/12/18 09:30:28;;;;;;;9.00;6.90;;;13.30;99.90;;;;;;5051884;28;20455;-72
2020/12/18 09:33:10;;;;;;;7.03;6.33;;;13.60;99.90;;;;;;5050833;28;20476;-72
2020/12/18 09:35:37;;;;;;;28.13;21.73;;;13.40;99.90;;;;;;5050506;28;20474;-67
2020/12/18 09:38:04;;;;;;;28.57;22.70;;;15.50;99.90;;;;;;5051164;28;20451;-70
2020/12/18 09:40:32;;;;;;;9.93;7.27;;;17.60;99.90;;;;;;5049367;28;20468;-70
2020/12/18 09:42:59;;;;;;;20.33;18.23;;;18.30;99.90;;;;;;5051043;28;20947;-67
2020/12/18 09:45:25;;;;;;;11.13;10.10;;;19.20;99.90;;;;;;5049984;28;20696;-66
2020/12/18 09:47:51;;;;;;;18.03;14.13;;;19.30;99.90;;;;;;5051337;28;20448;-69
2020/12/18 09:50:18;;;;;;;14.10;12.63;;;19.70;99.90;;;;;;5049378;28;20467;-67
2020/12/18 09:52:44;;;;;;;16.00;9.43;;;20.30;99.90;;;;;;5031734;28;20460;-67
2020/12/18 09:55:10;;;;;;;7.07;5.87;;;20.10;99.90;;;;;;5050346;28;20537;-69
2020/12/18 09:57:37;;;;;;;5.93;5.10;;;20.40;99.90;;;;;;5050951;28;20452;-69
2020/12/18 10:00:05;;;;;;;6.60;6.00;;;16.50;99.90;;;;;;5050015;28;20454;-69
2020/12/18 10:02:31;;;;;;;7.60;6.50;;;14.60;99.90;;;;;;5049506;28;20448;-72
2020/12/18 10:04:58;;;;;;;7.40;6.63;;;14.20;99.90;;;;;;5051186;28;20474;-72
2020/12/18 10:07:24;;;;;;;6.73;6.03;;;13.70;99.90;;;;;;5054788;28;20821;-71
2020/12/18 10:09:51;;;;;;;7.20;6.40;;;12.70;99.90;;;;;;5054741;28;20455;-72
2020/12/18 10:12:17;;;;;;;8.13;6.10;;;12.90;99.90;;;;;;5055147;28;20516;-71
2020/12/18 10:14:44;;;;;;;11.10;8.50;;;13.60;99.90;;;;;;5054434;28;20498;-71
2020/12/18 10:17:11;;;;;;;9.40;7.23;;;13.50;99.90;;;;;;5054832;28;20455;-71
2020/12/18 10:19:37;;;;;;;7.53;6.73;;;13.50;99.90;;;;;;5055083;28;20447;-71
2020/12/18 10:22:03;;;;;;;7.40;6.00;;;13.00;99.90;;;;;;5044092;28;20448;-71
2020/12/18 10:24:30;;;;;;;9.70;5.70;;;13.20;99.90;;;;;;5054711;28;20467;-72
2020/12/18 10:26:56;;;;;;;8.13;5.47;;;13.30;99.90;;;;;;5054646;28;20525;-71
2020/12/18 10:29:22;;;;;;;7.97;6.00;;;14.00;99.90;;;;;;5055119;28;20517;-71
2020/12/18 10:31:53;;;;;;;4.70;4.30;;;14.90;99.90;;;;;;5055282;28;20444;-71
2020/12/18 10:34:19;;;;;;;5.80;5.03;;;15.60;99.90;;;;;;5059937;28;20540;-71
2020/12/18 10:36:49;;;;;;;6.60;5.33;;;16.30;99.90;;;;;;5061631;28;20448;-71
2020/12/18 10:39:16;;;;;;;8.07;5.60;;;16.10;99.90;;;;;;5060568;28;20455;-71
2020/12/18 10:41:42;;;;;;;5.33;4.70;;;16.60;99.90;;;;;;5057933;28;20466;-72
2020/12/18 10:44:08;;;;;;;6.13;5.53;;;16.60;99.90;;;;;;5054138;28;20467;-71
2020/12/18 10:46:35;;;;;;;8.23;4.93;;;17.40;99.90;;;;;;5054608;28;20448;-71
2020/12/18 10:49:02;;;;;;;7.13;5.27;;;17.10;99.90;;;;;;5054661;28;20536;-71
2020/12/18 10:51:29;;;;;;;5.40;4.87;;;17.10;99.90;;;;;;5054205;28;20458;-71
2020/12/18 10:53:55;;;;;;;7.83;4.83;;;17.40;99.90;;;;;;5053835;28;20488;-71
2020/12/18 10:56:22;;;;;;;4.97;4.47;;;16.60;99.90;;;;;;5051517;28;21352;-72
2020/12/18 10:58:49;;;;;;;6.17;4.83;;;16.90;99.90;;;;;;5054141;28;20452;-72
2020/12/18 11:01:17;;;;;;;6.17;4.90;;;17.30;99.90;;;;;;5049201;28;20468;-72
2020/12/18 11:03:43;;;;;;;7.20;4.10;;;16.90;99.90;;;;;;5051351;28;20479;-72
2020/12/18 11:06:11;;;;;;;5.30;3.90;;;16.70;99.90;;;;;;5053697;28;20478;-72
2020/12/18 11:08:38;;;;;;;5.23;3.87;;;15.90;99.90;;;;;;5054122;28;20456;-71
2020/12/18 11:11:04;;;;;;;5.43;4.13;;;16.80;99.90;;;;;;5051026;28;20464;-72
2020/12/18 11:13:30;;;;;;;6.50;4.70;;;17.10;99.90;;;;;;5048188;28;20485;-71
2020/12/18 11:15:58;;;;;;;4.97;4.07;;;17.10;99.90;;;;;;5049346;28;20454;-72
2020/12/18 11:18:24;;;;;;;4.40;3.80;;;17.20;99.90;;;;;;5052574;28;20452;-73
2020/12/18 11:20:51;;;;;;;12.27;4.03;;;17.70;99.90;;;;;;5054371;28;20959;-69
2020/12/18 11:23:18;;;;;;;5.50;4.27;;;17.60;99.90;;;;;;5054961;28;20448;-69
2020/12/18 11:25:44;;;;;;;6.40;4.40;;;17.30;99.90;;;;;;5053978;28;20955;-69
2020/12/18 11:28:10;;;;;;;8.07;4.10;;;17.30;99.90;;;;;;5055152;28;20440;-69
2020/12/18 11:30:37;;;;;;;5.77;4.00;;;17.00;99.90;;;;;;5054462;28;20460;-69
2020/12/18 11:33:03;;;;;;;6.23;4.40;;;17.30;99.90;;;;;;5055048;28;20479;-69
2020/12/18 11:35:29;;;;;;;6.13;3.90;;;16.50;99.90;;;;;;5054810;28;20472;-69
2020/12/18 11:37:56;;;;;;;5.50;4.40;;;17.90;99.90;;;;;;5061821;28;20448;-69
2020/12/18 11:40:23;;;;;;;7.50;4.27;;;17.50;99.90;;;;;;5072740;28;20515;-69
2020/12/18 11:42:49;;;;;;;4.13;3.70;;;17.40;99.90;;;;;;5072299;28;21014;-69
2020/12/18 11:45:15;;;;;;;5.50;4.33;;;17.00;99.90;;;;;;5072574;28;20557;-69
2020/12/18 11:47:42;;;;;;;4.90;4.00;;;17.00;99.90;;;;;;5072034;28;20511;-69
2020/12/18 11:50:08;;;;;;;4.33;3.93;;;16.60;99.90;;;;;;5070691;28;20952;-69
2020/12/18 11:52:34;;;;;;;4.27;3.63;;;16.00;99.90;;;;;;5069819;28;20471;-69
2020/12/18 11:55:00;;;;;;;5.93;4.60;;;15.20;99.90;;;;;;5059320;28;20547;-71
2020/12/18 11:57:28;;;;;;;6.40;4.93;;;14.60;99.90;;;;;;5053781;28;20981;-71
2020/12/18 11:59:54;;;;;;;7.20;4.50;;;14.00;99.90;;;;;;5053652;28;20482;-72
2020/12/18 12:02:20;;;;;;;5.63;4.40;;;13.70;99.90;;;;;;5053212;28;20459;-71
2020/12/18 12:04:46;;;;;;;6.00;5.40;;;13.90;99.90;;;;;;5052617;28;20490;-71
2020/12/18 12:07:13;;;;;;;7.83;4.73;;;13.10;99.90;;;;;;5053396;28;20497;-71
2020/12/18 12:09:39;;;;;;;5.73;4.20;;;14.00;99.90;;;;;;5053624;28;20942;-71
2020/12/18 12:12:10;;;;;;;6.90;4.57;;;15.00;99.90;;;;;;5052773;28;20796;-71
2020/12/18 12:14:37;;;;;;;6.77;4.63;;;15.70;99.90;;;;;;5053088;28;20491;-69
2020/12/18 12:17:04;;;;;;;4.40;4.00;;;16.20;99.90;;;;;;5053535;28;20444;-69
2020/12/18 12:19:30;;;;;;;6.53;4.20;;;16.20;99.90;;;;;;5054293;28;20451;-71
2020/12/18 12:21:57;;;;;;;4.80;3.90;;;16.60;99.90;;;;;;5051583;28;20464;-70
2020/12/18 12:24:23;;;;;;;7.27;4.93;;;16.60;99.90;;;;;;5047097;28;20526;-72
2020/12/18 12:26:50;;;;;;;7.03;4.03;;;16.60;99.90;;;;;;5051887;28;20448;-72
2020/12/18 12:29:22;;;;;;;6.10;4.47;;;16.80;99.90;;;;;;5049540;28;20477;-72
2020/12/18 12:31:52;;;;;;;4.77;4.00;;;16.50;99.90;;;;;;5050624;28;20456;-72
2020/12/18 12:34:18;;;;;;;7.33;4.00;;;16.60;99.90;;;;;;5052608;28;20488;-72
2020/12/18 12:36:44;;;;;;;5.83;4.00;;;16.50;99.90;;;;;;5053583;28;20448;-72
2020/12/18 12:39:11;;;;;;;7.00;5.10;;;16.80;99.90;;;;;;5052447;28;20450;-72
2020/12/18 12:41:37;;;;;;;7.63;4.57;;;17.10;99.90;;;;;;5052828;28;20943;-70